This is the latest recevied weather packets stored in our database for station/object LU8AQL-WX. If no packets are shown the sender has not sent any weather packets the latest 10 day(s).
| Time | Temp. | Humidity | Pressure | Rain* | Wind** | Luminosity | Snow |
|---|---|---|---|---|---|---|---|
| 1787446300 | 9.44° C | 52% | 1023 hPa | 0 mm | - | - | - |
| 1787445698 | 9.44° C | 52% | 1023 hPa | 0 mm | - | - | - |
| 1787445097 | 9.44° C | 52% | 1023 hPa | 0 mm | - | - | - |
| 1787444496 | 9.44° C | 53% | 1022 hPa | 0 mm | - | - | - |
| 1787443895 | 8.89° C | 53% | 1022 hPa | 0 mm | - | - | - |
| 1787443294 | 8.89° C | 53% | 1023 hPa | 0 mm | - | - | - |
| 1787442693 | 8.89° C | 52% | 1023 hPa | 0 mm | - | - | - |
| 1787442093 | 8.89° C | 52% | 1023 hPa | 0 mm | - | - | - |
| 1787441491 | 8.89° C | 52% | 1022 hPa | 0 mm | - | - | - |
| 1787440890 | 8.89° C | 54% | 1022 hPa | 0 mm | - | - | - |
| 1787440281 | 9.44° C | 51% | 1022 hPa | 0 mm | - | - | - |
| 1787439680 | 9.44° C | 49% | 1023 hPa | 0 mm | - | - | - |
| 1787439079 | 10° C | 48% | 1023 hPa | 0 mm | - | - | - |
| 1787438478 | 10.56° C | 45% | 1023 hPa | 0 mm | - | - | - |
| 1787437877 | 10.56° C | 44% | 1022 hPa | 0 mm | - | - | - |
| 1787437276 | 10.56° C | 44% | 1022 hPa | 0 mm | - | - | - |
| 1787436675 | 11.11° C | 42% | 1022 hPa | 0 mm | - | - | - |
| 1787436075 | 11.67° C | 40% | 1023 hPa | 0 mm | - | - | - |
| 1787435471 | 11.67° C | 41% | 1023 hPa | 0 mm | - | - | - |
| 1787434870 | 11.67° C | 41% | 1023 hPa | 0 mm | - | - | - |
| 1787434269 | 12.22° C | 40% | 1023 hPa | 0 mm | - | - | - |
| 1787433668 | 12.22° C | 40% | 1022 hPa | 0 mm | - | - | - |
| 1787433067 | 12.22° C | 39% | 1021 hPa | 0 mm | - | - | - |
| 1787432466 | 12.78° C | 38% | 1022 hPa | 0 mm | - | - | - |
| 1787431865 | 12.78° C | 38% | 1022 hPa | 0 mm | - | - | - |
* Rain latest hour (hover to see other rain measurements)
** Current wind speed in m/s (hover to see current wind gust speed)